sensor_id;sensor_type;location;lat;lon;timestamp;P1;durP1;ratioP1;P2;durP2;ratioP2
12110;SDS011;6119;52.372;8.990;2022-07-29T00:01:48;2.80;;;1.33;;
12110;SDS011;6119;52.372;8.990;2022-07-29T00:04:38;6.07;;;1.40;;
12110;SDS011;6119;52.372;8.990;2022-07-29T00:07:25;2.80;;;1.20;;
12110;SDS011;6119;52.372;8.990;2022-07-29T00:10:12;5.93;;;1.23;;
12110;SDS011;6119;52.372;8.990;2022-07-29T00:12:58;4.20;;;1.50;;
12110;SDS011;6119;52.372;8.990;2022-07-29T00:15:45;3.00;;;1.33;;
12110;SDS011;6119;52.372;8.990;2022-07-29T00:18:31;3.90;;;1.00;;
12110;SDS011;6119;52.372;8.990;2022-07-29T00:21:19;7.10;;;1.50;;
12110;SDS011;6119;52.372;8.990;2022-07-29T00:24:06;3.00;;;1.50;;
12110;SDS011;6119;52.372;8.990;2022-07-29T00:26:52;3.97;;;1.57;;
12110;SDS011;6119;52.372;8.990;2022-07-29T00:29:38;2.00;;;1.20;;
12110;SDS011;6119;52.372;8.990;2022-07-29T00:32:25;1.20;;;1.10;;
12110;SDS011;6119;52.372;8.990;2022-07-29T00:35:11;1.43;;;1.03;;
12110;SDS011;6119;52.372;8.990;2022-07-29T00:38:19;1.67;;;1.20;;
12110;SDS011;6119;52.372;8.990;2022-07-29T00:41:05;2.13;;;1.50;;
12110;SDS011;6119;52.372;8.990;2022-07-29T00:43:52;1.67;;;1.20;;
12110;SDS011;6119;52.372;8.990;2022-07-29T00:46:38;2.27;;;1.33;;
12110;SDS011;6119;52.372;8.990;2022-07-29T00:49:25;2.03;;;1.13;;
12110;SDS011;6119;52.372;8.990;2022-07-29T00:52:12;2.50;;;1.13;;
12110;SDS011;6119;52.372;8.990;2022-07-29T00:55:03;2.63;;;1.40;;
12110;SDS011;6119;52.372;8.990;2022-07-29T00:57:52;5.30;;;1.33;;
12110;SDS011;6119;52.372;8.990;2022-07-29T01:00:40;2.77;;;1.30;;
12110;SDS011;6119;52.372;8.990;2022-07-29T01:03:29;2.30;;;1.40;;
12110;SDS011;6119;52.372;8.990;2022-07-29T01:06:16;1.37;;;0.97;;
12110;SDS011;6119;52.372;8.990;2022-07-29T01:09:04;2.70;;;1.40;;
12110;SDS011;6119;52.372;8.990;2022-07-29T01:11:52;2.70;;;1.30;;
12110;SDS011;6119;52.372;8.990;2022-07-29T01:14:39;2.30;;;1.20;;
12110;SDS011;6119;52.372;8.990;2022-07-29T01:17:28;2.90;;;1.20;;
12110;SDS011;6119;52.372;8.990;2022-07-29T01:20:20;3.43;;;1.37;;
12110;SDS011;6119;52.372;8.990;2022-07-29T01:23:24;2.90;;;1.30;;
12110;SDS011;6119;52.372;8.990;2022-07-29T01:26:35;7.13;;;1.20;;
12110;SDS011;6119;52.372;8.990;2022-07-29T01:29:30;1.60;;;1.20;;
12110;SDS011;6119;52.372;8.990;2022-07-29T01:32:25;3.70;;;1.10;;
12110;SDS011;6119;52.372;8.990;2022-07-29T01:35:15;3.67;;;1.30;;
12110;SDS011;6119;52.372;8.990;2022-07-29T01:38:06;1.93;;;1.27;;
12110;SDS011;6119;52.372;8.990;2022-07-29T01:40:58;3.73;;;1.33;;
12110;SDS011;6119;52.372;8.990;2022-07-29T01:43:52;1.50;;;1.40;;
12110;SDS011;6119;52.372;8.990;2022-07-29T01:46:44;5.30;;;1.37;;
12110;SDS011;6119;52.372;8.990;2022-07-29T01:49:36;1.40;;;1.17;;
12110;SDS011;6119;52.372;8.990;2022-07-29T01:52:27;3.03;;;1.10;;
12110;SDS011;6119;52.372;8.990;2022-07-29T01:55:20;3.23;;;1.40;;
12110;SDS011;6119;52.372;8.990;2022-07-29T01:58:11;2.37;;;1.20;;
12110;SDS011;6119;52.372;8.990;2022-07-29T02:01:03;2.70;;;1.60;;
12110;SDS011;6119;52.372;8.990;2022-07-29T02:03:52;1.97;;;1.20;;
12110;SDS011;6119;52.372;8.990;2022-07-29T02:06:40;4.17;;;1.50;;
12110;SDS011;6119;52.372;8.990;2022-07-29T02:09:29;2.83;;;1.20;;
12110;SDS011;6119;52.372;8.990;2022-07-29T02:12:17;3.27;;;1.30;;
12110;SDS011;6119;52.372;8.990;2022-07-29T02:15:05;4.53;;;1.50;;
12110;SDS011;6119;52.372;8.990;2022-07-29T02:17:56;3.73;;;1.20;;
12110;SDS011;6119;52.372;8.990;2022-07-29T02:20:48;3.03;;;1.30;;
12110;SDS011;6119;52.372;8.990;2022-07-29T02:23:37;2.73;;;1.50;;
12110;SDS011;6119;52.372;8.990;2022-07-29T02:26:35;2.70;;;1.50;;
12110;SDS011;6119;52.372;8.990;2022-07-29T02:29:23;3.30;;;1.30;;
12110;SDS011;6119;52.372;8.990;2022-07-29T02:32:13;3.53;;;1.50;;
12110;SDS011;6119;52.372;8.990;2022-07-29T02:35:01;3.23;;;1.20;;
12110;SDS011;6119;52.372;8.990;2022-07-29T02:37:50;6.33;;;1.53;;
12110;SDS011;6119;52.372;8.990;2022-07-29T02:40:52;1.30;;;1.23;;
12110;SDS011;6119;52.372;8.990;2022-07-29T02:43:40;2.53;;;1.37;;
12110;SDS011;6119;52.372;8.990;2022-07-29T02:46:30;2.80;;;1.37;;
12110;SDS011;6119;52.372;8.990;2022-07-29T02:52:23;2.03;;;1.30;;
12110;SDS011;6119;52.372;8.990;2022-07-29T02:55:15;2.47;;;1.20;;
12110;SDS011;6119;52.372;8.990;2022-07-29T02:58:05;4.40;;;1.30;;
12110;SDS011;6119;52.372;8.990;2022-07-29T03:00:59;2.77;;;1.40;;
12110;SDS011;6119;52.372;8.990;2022-07-29T03:03:50;4.30;;;1.40;;
12110;SDS011;6119;52.372;8.990;2022-07-29T03:06:39;4.33;;;1.60;;
12110;SDS011;6119;52.372;8.990;2022-07-29T03:09:26;2.57;;;1.27;;
12110;SDS011;6119;52.372;8.990;2022-07-29T03:12:15;6.33;;;1.53;;
12110;SDS011;6119;52.372;8.990;2022-07-29T03:15:02;4.63;;;1.40;;
12110;SDS011;6119;52.372;8.990;2022-07-29T03:17:50;2.00;;;1.50;;
12110;SDS011;6119;52.372;8.990;2022-07-29T03:20:37;1.17;;;1.17;;
12110;SDS011;6119;52.372;8.990;2022-07-29T03:23:24;3.67;;;1.37;;
12110;SDS011;6119;52.372;8.990;2022-07-29T03:26:20;2.47;;;1.43;;
12110;SDS011;6119;52.372;8.990;2022-07-29T03:29:08;1.47;;;1.30;;
12110;SDS011;6119;52.372;8.990;2022-07-29T03:31:57;3.70;;;1.53;;
12110;SDS011;6119;52.372;8.990;2022-07-29T03:34:46;2.50;;;1.50;;
12110;SDS011;6119;52.372;8.990;2022-07-29T03:37:32;2.13;;;1.50;;
12110;SDS011;6119;52.372;8.990;2022-07-29T03:40:22;2.33;;;1.27;;
12110;SDS011;6119;52.372;8.990;2022-07-29T03:43:15;1.30;;;1.20;;
12110;SDS011;6119;52.372;8.990;2022-07-29T03:46:05;1.90;;;1.40;;
12110;SDS011;6119;52.372;8.990;2022-07-29T03:48:55;3.53;;;1.33;;
12110;SDS011;6119;52.372;8.990;2022-07-29T03:51:45;2.13;;;1.40;;
12110;SDS011;6119;52.372;8.990;2022-07-29T03:54:32;2.43;;;1.40;;
12110;SDS011;6119;52.372;8.990;2022-07-29T03:57:20;10.80;;;1.80;;
12110;SDS011;6119;52.372;8.990;2022-07-29T04:00:09;4.67;;;1.80;;
12110;SDS011;6119;52.372;8.990;2022-07-29T04:02:58;3.03;;;1.10;;
12110;SDS011;6119;52.372;8.990;2022-07-29T04:05:50;2.60;;;1.40;;
12110;SDS011;6119;52.372;8.990;2022-07-29T04:08:43;2.03;;;1.30;;
12110;SDS011;6119;52.372;8.990;2022-07-29T04:11:30;2.83;;;1.27;;
12110;SDS011;6119;52.372;8.990;2022-07-29T04:14:36;4.50;;;1.40;;
12110;SDS011;6119;52.372;8.990;2022-07-29T04:17:23;7.83;;;1.70;;
12110;SDS011;6119;52.372;8.990;2022-07-29T04:20:11;2.33;;;2.00;;
12110;SDS011;6119;52.372;8.990;2022-07-29T04:22:58;4.70;;;1.53;;
12110;SDS011;6119;52.372;8.990;2022-07-29T04:25:44;3.47;;;1.53;;
12110;SDS011;6119;52.372;8.990;2022-07-29T04:28:31;4.23;;;1.30;;
12110;SDS011;6119;52.372;8.990;2022-07-29T04:31:18;4.87;;;1.40;;
12110;SDS011;6119;52.372;8.990;2022-07-29T04:34:09;3.37;;;1.70;;
12110;SDS011;6119;52.372;8.990;2022-07-29T04:36:59;1.50;;;1.17;;
12110;SDS011;6119;52.372;8.990;2022-07-29T04:39:45;1.77;;;1.20;;
12110;SDS011;6119;52.372;8.990;2022-07-29T04:42:31;3.70;;;1.27;;
12110;SDS011;6119;52.372;8.990;2022-07-29T04:45:28;4.30;;;1.17;;
12110;SDS011;6119;52.372;8.990;2022-07-29T04:48:15;4.13;;;1.50;;
12110;SDS011;6119;52.372;8.990;2022-07-29T04:51:01;2.27;;;1.00;;
12110;SDS011;6119;52.372;8.990;2022-07-29T04:53:49;7.20;;;1.30;;
12110;SDS011;6119;52.372;8.990;2022-07-29T04:56:35;3.33;;;1.40;;
12110;SDS011;6119;52.372;8.990;2022-07-29T04:59:22;3.23;;;1.50;;
12110;SDS011;6119;52.372;8.990;2022-07-29T05:02:09;6.00;;;1.60;;
12110;SDS011;6119;52.372;8.990;2022-07-29T05:04:56;3.20;;;1.60;;
12110;SDS011;6119;52.372;8.990;2022-07-29T05:07:43;5.37;;;1.40;;
12110;SDS011;6119;52.372;8.990;2022-07-29T05:10:30;5.33;;;1.40;;
12110;SDS011;6119;52.372;8.990;2022-07-29T05:13:18;2.30;;;1.50;;
12110;SDS011;6119;52.372;8.990;2022-07-29T05:16:05;1.60;;;1.50;;
12110;SDS011;6119;52.372;8.990;2022-07-29T05:18:51;1.50;;;1.40;;
12110;SDS011;6119;52.372;8.990;2022-07-29T05:21:37;3.37;;;1.40;;
12110;SDS011;6119;52.372;8.990;2022-07-29T05:24:24;2.87;;;1.70;;
12110;SDS011;6119;52.372;8.990;2022-07-29T05:27:12;1.63;;;1.20;;
12110;SDS011;6119;52.372;8.990;2022-07-29T05:29:58;2.37;;;1.10;;
12110;SDS011;6119;52.372;8.990;2022-07-29T05:32:45;3.03;;;1.43;;
12110;SDS011;6119;52.372;8.990;2022-07-29T05:35:32;4.33;;;1.37;;
12110;SDS011;6119;52.372;8.990;2022-07-29T05:38:19;2.10;;;1.53;;
12110;SDS011;6119;52.372;8.990;2022-07-29T05:41:06;2.57;;;1.20;;
12110;SDS011;6119;52.372;8.990;2022-07-29T05:43:53;1.67;;;1.50;;
12110;SDS011;6119;52.372;8.990;2022-07-29T05:46:40;4.37;;;1.47;;
12110;SDS011;6119;52.372;8.990;2022-07-29T05:49:27;2.63;;;1.40;;
12110;SDS011;6119;52.372;8.990;2022-07-29T05:52:13;3.33;;;1.50;;
12110;SDS011;6119;52.372;8.990;2022-07-29T05:55:00;3.33;;;1.40;;
12110;SDS011;6119;52.372;8.990;2022-07-29T05:57:51;3.67;;;1.70;;
12110;SDS011;6119;52.372;8.990;2022-07-29T06:00:39;4.23;;;1.57;;
12110;SDS011;6119;52.372;8.990;2022-07-29T06:03:26;4.13;;;1.33;;
12110;SDS011;6119;52.372;8.990;2022-07-29T06:06:13;5.67;;;1.37;;
12110;SDS011;6119;52.372;8.990;2022-07-29T06:09:00;9.57;;;2.20;;
12110;SDS011;6119;52.372;8.990;2022-07-29T06:11:56;1.63;;;1.40;;
12110;SDS011;6119;52.372;8.990;2022-07-29T06:14:43;3.57;;;1.53;;
12110;SDS011;6119;52.372;8.990;2022-07-29T06:17:35;1.80;;;1.30;;
12110;SDS011;6119;52.372;8.990;2022-07-29T06:20:42;1.83;;;1.30;;
12110;SDS011;6119;52.372;8.990;2022-07-29T06:23:29;2.10;;;1.50;;
12110;SDS011;6119;52.372;8.990;2022-07-29T06:26:15;7.50;;;1.63;;
12110;SDS011;6119;52.372;8.990;2022-07-29T06:29:12;4.20;;;1.40;;
12110;SDS011;6119;52.372;8.990;2022-07-29T06:31:58;4.40;;;1.70;;
12110;SDS011;6119;52.372;8.990;2022-07-29T06:34:46;6.83;;;1.67;;
12110;SDS011;6119;52.372;8.990;2022-07-29T06:37:33;3.87;;;1.83;;
12110;SDS011;6119;52.372;8.990;2022-07-29T06:40:22;2.73;;;1.60;;
12110;SDS011;6119;52.372;8.990;2022-07-29T06:43:26;1.67;;;1.17;;
12110;SDS011;6119;52.372;8.990;2022-07-29T06:46:16;2.13;;;1.40;;
12110;SDS011;6119;52.372;8.990;2022-07-29T06:49:04;3.90;;;1.70;;
12110;SDS011;6119;52.372;8.990;2022-07-29T06:51:53;4.63;;;1.70;;
12110;SDS011;6119;52.372;8.990;2022-07-29T06:54:40;2.27;;;1.77;;
12110;SDS011;6119;52.372;8.990;2022-07-29T06:57:32;4.13;;;1.40;;
12110;SDS011;6119;52.372;8.990;2022-07-29T07:00:19;4.27;;;1.70;;
12110;SDS011;6119;52.372;8.990;2022-07-29T07:03:06;1.73;;;1.43;;
12110;SDS011;6119;52.372;8.990;2022-07-29T07:05:52;2.37;;;1.40;;
12110;SDS011;6119;52.372;8.990;2022-07-29T07:08:41;3.20;;;1.63;;
12110;SDS011;6119;52.372;8.990;2022-07-29T07:11:28;3.53;;;1.40;;
12110;SDS011;6119;52.372;8.990;2022-07-29T07:14:15;2.63;;;1.63;;
12110;SDS011;6119;52.372;8.990;2022-07-29T07:17:02;3.83;;;1.90;;
12110;SDS011;6119;52.372;8.990;2022-07-29T07:19:51;4.63;;;1.83;;
12110;SDS011;6119;52.372;8.990;2022-07-29T07:22:38;4.93;;;1.83;;
12110;SDS011;6119;52.372;8.990;2022-07-29T07:25:26;4.00;;;1.73;;
12110;SDS011;6119;52.372;8.990;2022-07-29T07:28:13;7.83;;;1.70;;
12110;SDS011;6119;52.372;8.990;2022-07-29T07:30:59;2.97;;;1.60;;
12110;SDS011;6119;52.372;8.990;2022-07-29T07:33:46;6.17;;;1.93;;
12110;SDS011;6119;52.372;8.990;2022-07-29T07:36:32;3.87;;;1.67;;
12110;SDS011;6119;52.372;8.990;2022-07-29T07:39:19;3.33;;;1.60;;
12110;SDS011;6119;52.372;8.990;2022-07-29T07:42:06;3.87;;;1.57;;
12110;SDS011;6119;52.372;8.990;2022-07-29T07:44:54;4.07;;;1.80;;
12110;SDS011;6119;52.372;8.990;2022-07-29T07:47:57;9.23;;;2.10;;
12110;SDS011;6119;52.372;8.990;2022-07-29T07:50:44;4.40;;;1.80;;
12110;SDS011;6119;52.372;8.990;2022-07-29T07:53:31;3.13;;;1.70;;
12110;SDS011;6119;52.372;8.990;2022-07-29T07:56:18;7.20;;;2.07;;
12110;SDS011;6119;52.372;8.990;2022-07-29T07:59:08;5.33;;;1.90;;
12110;SDS011;6119;52.372;8.990;2022-07-29T08:01:55;5.73;;;1.77;;
12110;SDS011;6119;52.372;8.990;2022-07-29T08:04:42;1.70;;;1.60;;
12110;SDS011;6119;52.372;8.990;2022-07-29T08:07:28;2.07;;;1.40;;
12110;SDS011;6119;52.372;8.990;2022-07-29T08:10:15;5.47;;;1.90;;
12110;SDS011;6119;52.372;8.990;2022-07-29T08:13:25;2.83;;;1.60;;
12110;SDS011;6119;52.372;8.990;2022-07-29T08:16:15;8.07;;;1.73;;
12110;SDS011;6119;52.372;8.990;2022-07-29T08:19:02;3.53;;;1.80;;
12110;SDS011;6119;52.372;8.990;2022-07-29T08:21:48;2.43;;;1.60;;
12110;SDS011;6119;52.372;8.990;2022-07-29T08:24:37;5.63;;;2.30;;
12110;SDS011;6119;52.372;8.990;2022-07-29T08:27:37;4.53;;;1.80;;
12110;SDS011;6119;52.372;8.990;2022-07-29T08:30:28;5.30;;;2.10;;
12110;SDS011;6119;52.372;8.990;2022-07-29T08:33:16;4.50;;;1.90;;
12110;SDS011;6119;52.372;8.990;2022-07-29T08:36:03;1.63;;;1.50;;
12110;SDS011;6119;52.372;8.990;2022-07-29T08:38:50;4.87;;;2.07;;
12110;SDS011;6119;52.372;8.990;2022-07-29T08:41:37;8.83;;;2.17;;
12110;SDS011;6119;52.372;8.990;2022-07-29T08:44:40;4.80;;;2.33;;
12110;SDS011;6119;52.372;8.990;2022-07-29T08:47:26;6.40;;;2.00;;
12110;SDS011;6119;52.372;8.990;2022-07-29T08:50:15;4.00;;;1.73;;
12110;SDS011;6119;52.372;8.990;2022-07-29T08:53:02;4.33;;;2.00;;
12110;SDS011;6119;52.372;8.990;2022-07-29T08:55:49;2.47;;;1.73;;
12110;SDS011;6119;52.372;8.990;2022-07-29T08:58:37;6.50;;;2.33;;
12110;SDS011;6119;52.372;8.990;2022-07-29T09:01:24;2.63;;;1.70;;
12110;SDS011;6119;52.372;8.990;2022-07-29T09:04:20;3.37;;;2.03;;
12110;SDS011;6119;52.372;8.990;2022-07-29T09:07:10;3.77;;;1.97;;
12110;SDS011;6119;52.372;8.990;2022-07-29T09:10:01;3.70;;;1.70;;
12110;SDS011;6119;52.372;8.990;2022-07-29T09:12:50;9.27;;;1.90;;
12110;SDS011;6119;52.372;8.990;2022-07-29T09:15:36;3.63;;;1.80;;
12110;SDS011;6119;52.372;8.990;2022-07-29T09:18:33;3.57;;;1.80;;
12110;SDS011;6119;52.372;8.990;2022-07-29T09:21:20;12.43;;;2.10;;
12110;SDS011;6119;52.372;8.990;2022-07-29T09:24:41;5.03;;;2.07;;
12110;SDS011;6119;52.372;8.990;2022-07-29T09:27:29;4.63;;;2.17;;
12110;SDS011;6119;52.372;8.990;2022-07-29T09:30:16;4.33;;;2.50;;
12110;SDS011;6119;52.372;8.990;2022-07-29T09:33:15;3.03;;;1.70;;
12110;SDS011;6119;52.372;8.990;2022-07-29T09:36:02;3.57;;;2.40;;
12110;SDS011;6119;52.372;8.990;2022-07-29T09:38:56;4.90;;;2.10;;
12110;SDS011;6119;52.372;8.990;2022-07-29T09:41:49;4.63;;;2.00;;
12110;SDS011;6119;52.372;8.990;2022-07-29T09:44:41;3.93;;;1.83;;
12110;SDS011;6119;52.372;8.990;2022-07-29T09:47:40;3.80;;;1.97;;
12110;SDS011;6119;52.372;8.990;2022-07-29T09:50:37;4.10;;;1.77;;
12110;SDS011;6119;52.372;8.990;2022-07-29T09:53:31;3.70;;;2.10;;
12110;SDS011;6119;52.372;8.990;2022-07-29T09:56:18;4.00;;;1.90;;
12110;SDS011;6119;52.372;8.990;2022-07-29T09:59:06;6.43;;;1.77;;
12110;SDS011;6119;52.372;8.990;2022-07-29T10:01:53;5.63;;;2.00;;
12110;SDS011;6119;52.372;8.990;2022-07-29T10:04:41;7.73;;;2.60;;
12110;SDS011;6119;52.372;8.990;2022-07-29T10:07:42;4.60;;;2.37;;
12110;SDS011;6119;52.372;8.990;2022-07-29T10:10:36;3.97;;;1.87;;
12110;SDS011;6119;52.372;8.990;2022-07-29T10:13:24;5.23;;;2.00;;
12110;SDS011;6119;52.372;8.990;2022-07-29T10:16:13;3.60;;;1.80;;
12110;SDS011;6119;52.372;8.990;2022-07-29T10:19:01;7.27;;;2.10;;
12110;SDS011;6119;52.372;8.990;2022-07-29T10:21:47;5.60;;;2.30;;
12110;SDS011;6119;52.372;8.990;2022-07-29T10:24:41;5.65;;;2.50;;
12110;SDS011;6119;52.372;8.990;2022-07-29T10:27:27;3.97;;;2.30;;
12110;SDS011;6119;52.372;8.990;2022-07-29T10:30:17;2.80;;;2.03;;
12110;SDS011;6119;52.372;8.990;2022-07-29T10:33:16;5.03;;;2.33;;
12110;SDS011;6119;52.372;8.990;2022-07-29T10:36:15;6.87;;;2.30;;
12110;SDS011;6119;52.372;8.990;2022-07-29T10:39:14;3.57;;;2.07;;
12110;SDS011;6119;52.372;8.990;2022-07-29T10:42:28;5.93;;;2.30;;
12110;SDS011;6119;52.372;8.990;2022-07-29T10:45:18;7.33;;;2.17;;
12110;SDS011;6119;52.372;8.990;2022-07-29T10:48:05;7.10;;;2.50;;
12110;SDS011;6119;52.372;8.990;2022-07-29T10:50:54;3.73;;;2.40;;
12110;SDS011;6119;52.372;8.990;2022-07-29T10:53:47;4.30;;;2.47;;
12110;SDS011;6119;52.372;8.990;2022-07-29T10:56:37;4.10;;;2.20;;
12110;SDS011;6119;52.372;8.990;2022-07-29T10:59:27;4.07;;;2.03;;
12110;SDS011;6119;52.372;8.990;2022-07-29T11:05:30;8.77;;;2.20;;
12110;SDS011;6119;52.372;8.990;2022-07-29T11:08:39;5.90;;;2.37;;
12110;SDS011;6119;52.372;8.990;2022-07-29T11:11:32;2.70;;;2.10;;
12110;SDS011;6119;52.372;8.990;2022-07-29T11:20:50;8.37;;;2.47;;
12110;SDS011;6119;52.372;8.990;2022-07-29T11:23:40;6.20;;;2.30;;
12110;SDS011;6119;52.372;8.990;2022-07-29T11:26:29;5.23;;;2.50;;
12110;SDS011;6119;52.372;8.990;2022-07-29T11:29:18;4.50;;;1.90;;
12110;SDS011;6119;52.372;8.990;2022-07-29T11:32:10;5.17;;;2.43;;
12110;SDS011;6119;52.372;8.990;2022-07-29T11:35:19;6.53;;;2.10;;
12110;SDS011;6119;52.372;8.990;2022-07-29T11:38:28;6.70;;;2.10;;
12110;SDS011;6119;52.372;8.990;2022-07-29T11:41:36;4.77;;;2.30;;
12110;SDS011;6119;52.372;8.990;2022-07-29T11:44:29;6.53;;;2.40;;
12110;SDS011;6119;52.372;8.990;2022-07-29T11:47:46;7.33;;;2.10;;
12110;SDS011;6119;52.372;8.990;2022-07-29T11:50:36;9.20;;;2.47;;
12110;SDS011;6119;52.372;8.990;2022-07-29T11:53:29;5.73;;;2.30;;
12110;SDS011;6119;52.372;8.990;2022-07-29T11:56:17;8.17;;;2.33;;
12110;SDS011;6119;52.372;8.990;2022-07-29T11:59:10;4.10;;;2.27;;
12110;SDS011;6119;52.372;8.990;2022-07-29T12:01:59;6.77;;;2.50;;
12110;SDS011;6119;52.372;8.990;2022-07-29T12:05:07;4.33;;;2.17;;
12110;SDS011;6119;52.372;8.990;2022-07-29T12:07:58;3.63;;;2.40;;
12110;SDS011;6119;52.372;8.990;2022-07-29T12:10:57;6.20;;;2.57;;
12110;SDS011;6119;52.372;8.990;2022-07-29T12:13:43;5.90;;;2.70;;
12110;SDS011;6119;52.372;8.990;2022-07-29T12:16:35;5.77;;;2.30;;
12110;SDS011;6119;52.372;8.990;2022-07-29T12:19:24;5.40;;;2.00;;
12110;SDS011;6119;52.372;8.990;2022-07-29T12:22:11;4.87;;;2.60;;
12110;SDS011;6119;52.372;8.990;2022-07-29T12:25:00;9.33;;;2.80;;
12110;SDS011;6119;52.372;8.990;2022-07-29T12:28:08;9.13;;;2.73;;
12110;SDS011;6119;52.372;8.990;2022-07-29T12:30:57;4.97;;;2.20;;
12110;SDS011;6119;52.372;8.990;2022-07-29T12:33:52;6.27;;;2.90;;
12110;SDS011;6119;52.372;8.990;2022-07-29T12:36:42;3.07;;;2.30;;
12110;SDS011;6119;52.372;8.990;2022-07-29T12:39:28;5.37;;;2.60;;
12110;SDS011;6119;52.372;8.990;2022-07-29T12:42:16;5.23;;;2.43;;
12110;SDS011;6119;52.372;8.990;2022-07-29T12:45:03;3.77;;;2.40;;
12110;SDS011;6119;52.372;8.990;2022-07-29T12:47:50;3.63;;;2.70;;
12110;SDS011;6119;52.372;8.990;2022-07-29T12:50:52;5.90;;;2.57;;
12110;SDS011;6119;52.372;8.990;2022-07-29T12:53:40;6.63;;;2.43;;
12110;SDS011;6119;52.372;8.990;2022-07-29T12:56:27;3.17;;;2.40;;
12110;SDS011;6119;52.372;8.990;2022-07-29T12:59:27;6.17;;;2.60;;
12110;SDS011;6119;52.372;8.990;2022-07-29T13:02:20;9.97;;;2.50;;
12110;SDS011;6119;52.372;8.990;2022-07-29T13:05:07;9.77;;;2.47;;
12110;SDS011;6119;52.372;8.990;2022-07-29T13:07:56;5.33;;;2.60;;
12110;SDS011;6119;52.372;8.990;2022-07-29T13:11:06;7.00;;;2.60;;
12110;SDS011;6119;52.372;8.990;2022-07-29T13:13:52;5.83;;;2.40;;
12110;SDS011;6119;52.372;8.990;2022-07-29T13:17:01;4.50;;;2.90;;
12110;SDS011;6119;52.372;8.990;2022-07-29T13:19:50;11.20;;;2.67;;
12110;SDS011;6119;52.372;8.990;2022-07-29T13:22:38;7.40;;;2.30;;
12110;SDS011;6119;52.372;8.990;2022-07-29T13:25:26;4.70;;;2.70;;
12110;SDS011;6119;52.372;8.990;2022-07-29T13:28:14;6.53;;;2.50;;
12110;SDS011;6119;52.372;8.990;2022-07-29T13:31:01;4.10;;;2.37;;
12110;SDS011;6119;52.372;8.990;2022-07-29T13:33:48;10.67;;;3.20;;
12110;SDS011;6119;52.372;8.990;2022-07-29T13:36:36;3.90;;;2.50;;
12110;SDS011;6119;52.372;8.990;2022-07-29T13:39:25;5.23;;;2.87;;
12110;SDS011;6119;52.372;8.990;2022-07-29T13:42:13;6.50;;;2.70;;
12110;SDS011;6119;52.372;8.990;2022-07-29T13:45:00;9.00;;;3.00;;
12110;SDS011;6119;52.372;8.990;2022-07-29T13:47:47;5.37;;;2.70;;
12110;SDS011;6119;52.372;8.990;2022-07-29T13:50:34;4.33;;;3.13;;
12110;SDS011;6119;52.372;8.990;2022-07-29T13:53:20;6.47;;;2.97;;
12110;SDS011;6119;52.372;8.990;2022-07-29T13:56:11;5.13;;;2.50;;
12110;SDS011;6119;52.372;8.990;2022-07-29T13:58:58;4.33;;;2.80;;
12110;SDS011;6119;52.372;8.990;2022-07-29T14:01:45;8.30;;;2.90;;
12110;SDS011;6119;52.372;8.990;2022-07-29T14:04:32;6.40;;;2.43;;
12110;SDS011;6119;52.372;8.990;2022-07-29T14:07:19;6.70;;;3.10;;
12110;SDS011;6119;52.372;8.990;2022-07-29T14:10:06;6.93;;;3.20;;
12110;SDS011;6119;52.372;8.990;2022-07-29T14:12:53;4.60;;;2.77;;
12110;SDS011;6119;52.372;8.990;2022-07-29T14:15:41;3.97;;;2.30;;
12110;SDS011;6119;52.372;8.990;2022-07-29T14:18:28;4.17;;;2.60;;
12110;SDS011;6119;52.372;8.990;2022-07-29T14:21:15;7.33;;;3.73;;
12110;SDS011;6119;52.372;8.990;2022-07-29T14:24:01;5.47;;;2.70;;
12110;SDS011;6119;52.372;8.990;2022-07-29T14:27:01;3.97;;;2.80;;
12110;SDS011;6119;52.372;8.990;2022-07-29T14:29:48;3.53;;;2.70;;
12110;SDS011;6119;52.372;8.990;2022-07-29T14:32:36;4.03;;;2.73;;
12110;SDS011;6119;52.372;8.990;2022-07-29T14:35:23;4.83;;;2.90;;
12110;SDS011;6119;52.372;8.990;2022-07-29T14:38:10;3.67;;;2.80;;
12110;SDS011;6119;52.372;8.990;2022-07-29T14:40:56;9.23;;;2.53;;
12110;SDS011;6119;52.372;8.990;2022-07-29T14:43:43;5.03;;;2.67;;
12110;SDS011;6119;52.372;8.990;2022-07-29T14:46:29;5.47;;;2.23;;
12110;SDS011;6119;52.372;8.990;2022-07-29T14:49:18;5.73;;;2.57;;
12110;SDS011;6119;52.372;8.990;2022-07-29T14:52:04;7.97;;;2.90;;
12110;SDS011;6119;52.372;8.990;2022-07-29T14:54:51;9.93;;;2.60;;
12110;SDS011;6119;52.372;8.990;2022-07-29T14:57:37;2.60;;;2.40;;
12110;SDS011;6119;52.372;8.990;2022-07-29T15:00:25;6.03;;;2.53;;
12110;SDS011;6119;52.372;8.990;2022-07-29T15:03:11;4.10;;;2.70;;
12110;SDS011;6119;52.372;8.990;2022-07-29T15:06:09;8.40;;;2.70;;
12110;SDS011;6119;52.372;8.990;2022-07-29T15:08:56;5.23;;;2.97;;
12110;SDS011;6119;52.372;8.990;2022-07-29T15:11:42;7.03;;;2.83;;
12110;SDS011;6119;52.372;8.990;2022-07-29T15:14:28;5.40;;;2.67;;
12110;SDS011;6119;52.372;8.990;2022-07-29T15:17:16;7.70;;;3.03;;
12110;SDS011;6119;52.372;8.990;2022-07-29T15:20:03;3.97;;;2.37;;
12110;SDS011;6119;52.372;8.990;2022-07-29T15:22:52;4.20;;;2.60;;
12110;SDS011;6119;52.372;8.990;2022-07-29T15:25:40;4.83;;;2.77;;
12110;SDS011;6119;52.372;8.990;2022-07-29T15:28:26;4.97;;;3.00;;
12110;SDS011;6119;52.372;8.990;2022-07-29T15:31:12;10.77;;;3.20;;
12110;SDS011;6119;52.372;8.990;2022-07-29T15:33:59;6.63;;;2.97;;
12110;SDS011;6119;52.372;8.990;2022-07-29T15:36:50;7.03;;;3.00;;
12110;SDS011;6119;52.372;8.990;2022-07-29T15:39:39;5.63;;;2.63;;
12110;SDS011;6119;52.372;8.990;2022-07-29T15:42:26;5.53;;;2.90;;
12110;SDS011;6119;52.372;8.990;2022-07-29T15:45:12;4.53;;;2.63;;
12110;SDS011;6119;52.372;8.990;2022-07-29T15:48:01;6.73;;;3.10;;
12110;SDS011;6119;52.372;8.990;2022-07-29T15:50:49;4.13;;;2.30;;
12110;SDS011;6119;52.372;8.990;2022-07-29T15:53:36;5.83;;;2.70;;
12110;SDS011;6119;52.372;8.990;2022-07-29T15:56:23;6.83;;;2.87;;
12110;SDS011;6119;52.372;8.990;2022-07-29T15:59:10;7.10;;;3.20;;
12110;SDS011;6119;52.372;8.990;2022-07-29T16:02:06;6.50;;;3.10;;
12110;SDS011;6119;52.372;8.990;2022-07-29T16:04:53;6.63;;;3.27;;
12110;SDS011;6119;52.372;8.990;2022-07-29T16:07:39;4.60;;;2.93;;
12110;SDS011;6119;52.372;8.990;2022-07-29T16:10:26;6.23;;;3.07;;
12110;SDS011;6119;52.372;8.990;2022-07-29T16:13:14;5.27;;;3.00;;
12110;SDS011;6119;52.372;8.990;2022-07-29T16:16:02;6.63;;;3.47;;
12110;SDS011;6119;52.372;8.990;2022-07-29T16:18:49;5.83;;;2.73;;
12110;SDS011;6119;52.372;8.990;2022-07-29T16:21:36;5.90;;;2.87;;
12110;SDS011;6119;52.372;8.990;2022-07-29T16:24:22;5.43;;;2.90;;
12110;SDS011;6119;52.372;8.990;2022-07-29T16:27:13;4.63;;;2.83;;
12110;SDS011;6119;52.372;8.990;2022-07-29T16:30:01;8.23;;;3.27;;
12110;SDS011;6119;52.372;8.990;2022-07-29T16:32:48;5.87;;;3.00;;
12110;SDS011;6119;52.372;8.990;2022-07-29T16:35:34;7.70;;;3.03;;
12110;SDS011;6119;52.372;8.990;2022-07-29T16:38:23;9.63;;;3.20;;
12110;SDS011;6119;52.372;8.990;2022-07-29T16:41:10;7.93;;;3.30;;
12110;SDS011;6119;52.372;8.990;2022-07-29T16:43:57;9.13;;;2.67;;
12110;SDS011;6119;52.372;8.990;2022-07-29T16:46:45;8.30;;;3.40;;
12110;SDS011;6119;52.372;8.990;2022-07-29T16:49:33;5.30;;;3.10;;
12110;SDS011;6119;52.372;8.990;2022-07-29T16:52:19;6.33;;;3.27;;
12110;SDS011;6119;52.372;8.990;2022-07-29T16:55:06;6.67;;;3.00;;
12110;SDS011;6119;52.372;8.990;2022-07-29T16:57:52;6.67;;;2.90;;
12110;SDS011;6119;52.372;8.990;2022-07-29T17:00:39;4.20;;;2.90;;
12110;SDS011;6119;52.372;8.990;2022-07-29T17:03:27;6.50;;;3.17;;
12110;SDS011;6119;52.372;8.990;2022-07-29T17:06:14;6.50;;;3.13;;
12110;SDS011;6119;52.372;8.990;2022-07-29T17:09:01;8.80;;;2.30;;
12110;SDS011;6119;52.372;8.990;2022-07-29T17:11:48;7.53;;;2.97;;
12110;SDS011;6119;52.372;8.990;2022-07-29T17:14:38;7.73;;;3.00;;
12110;SDS011;6119;52.372;8.990;2022-07-29T17:17:25;4.33;;;2.83;;
12110;SDS011;6119;52.372;8.990;2022-07-29T17:20:33;3.80;;;2.70;;
12110;SDS011;6119;52.372;8.990;2022-07-29T17:23:20;4.93;;;2.87;;
12110;SDS011;6119;52.372;8.990;2022-07-29T17:26:06;6.00;;;3.30;;
12110;SDS011;6119;52.372;8.990;2022-07-29T17:28:53;8.83;;;4.27;;
12110;SDS011;6119;52.372;8.990;2022-07-29T17:31:39;9.10;;;4.07;;